createdAt,value
2018-11-29T09:18:04.970Z,15.73
2018-11-29T09:18:36.959Z,15.73
2018-11-29T09:19:08.915Z,15.77
2018-11-29T09:19:40.900Z,15.77
2018-11-29T09:20:12.915Z,15.84
2018-11-29T09:20:44.892Z,15.8
2018-11-29T09:21:16.882Z,15.8
2018-11-29T09:21:48.876Z,15.83
2018-11-29T09:22:20.851Z,15.86
2018-11-29T09:22:52.829Z,15.86
2018-11-29T09:23:24.799Z,15.78
2018-11-29T09:23:56.774Z,15.92
2018-11-29T09:24:28.781Z,15.8
2018-11-29T09:25:00.775Z,15.89
2018-11-29T09:25:32.791Z,15.8
2018-11-29T09:26:04.766Z,15.91
2018-11-29T09:26:36.733Z,15.78
2018-11-29T09:27:08.704Z,15.84
2018-11-29T09:27:40.693Z,15.92
2018-11-29T09:28:12.671Z,15.89
2018-11-29T09:28:44.640Z,15.91
2018-11-29T09:29:16.612Z,15.88
2018-11-29T09:29:48.604Z,15.91
2018-11-29T09:30:20.579Z,15.89
2018-11-29T09:30:52.586Z,15.89
2018-11-29T09:31:24.570Z,15.91
2018-11-29T09:31:56.559Z,15.98
2018-11-29T09:32:28.538Z,15.95
2018-11-29T09:33:00.522Z,15.92
2018-11-29T09:33:32.529Z,15.92
2018-11-29T09:34:04.519Z,15.98
2018-11-29T09:34:36.529Z,15.96
2018-11-29T09:35:08.553Z,15.99
2018-11-29T09:35:40.543Z,15.96
2018-11-29T09:36:12.518Z,16
2018-11-29T09:36:44.509Z,15.98
2018-11-29T09:37:16.475Z,16.02
2018-11-29T09:37:48.480Z,16.07
2018-11-29T09:38:20.470Z,15.96
2018-11-29T09:38:52.452Z,16.04
2018-11-29T09:39:24.418Z,16.08
2018-11-29T09:39:56.408Z,16.08
2018-11-29T09:40:28.510Z,16.11
2018-11-29T09:41:00.474Z,16.04
2018-11-29T09:41:32.437Z,16.04
2018-11-29T09:42:04.449Z,16.04
2018-11-29T09:42:36.435Z,16.08
2018-11-29T09:43:08.424Z,16.02
2018-11-29T09:43:40.407Z,16.02
2018-11-29T09:44:12.371Z,16.08
2018-11-29T09:44:44.425Z,15.99
2018-11-29T09:45:16.399Z,16.08
2018-11-29T09:45:48.390Z,16
2018-11-29T09:46:20.366Z,16.13
2018-11-29T09:46:52.338Z,16.13
2018-11-29T09:47:24.390Z,16.13
2018-11-29T09:47:56.427Z,16.14
2018-11-29T09:48:28.504Z,16.14
2018-11-29T09:49:00.502Z,16.17
2018-11-29T09:49:32.482Z,16.16
2018-11-29T09:50:04.490Z,16.17
2018-11-29T09:50:37.470Z,16.18
2018-11-29T09:51:09.506Z,16.17
2018-11-29T09:51:41.847Z,16.18
2018-11-29T09:52:13.878Z,16.21
2018-11-29T09:52:45.887Z,16.11
2018-11-29T09:53:17.928Z,16.21
2018-11-29T09:53:49.905Z,16.27
2018-11-29T09:54:21.892Z,16.14
2018-11-29T09:54:53.909Z,16.22
2018-11-29T09:55:25.902Z,16.22
2018-11-29T09:55:57.902Z,16.25
2018-11-29T09:56:29.897Z,16.21
2018-11-29T09:57:01.868Z,16.18
2018-11-29T09:57:33.863Z,16.26
2018-11-29T09:58:05.851Z,16.21
2018-11-29T09:58:37.858Z,16.26
2018-11-29T09:59:09.825Z,16.3
2018-11-29T09:59:41.825Z,16.21
2018-11-29T10:00:13.830Z,16.27
2018-11-29T10:00:45.887Z,16.25
2018-11-29T10:01:17.902Z,16.22
2018-11-29T10:01:49.870Z,16.29
2018-11-29T10:02:21.845Z,16.26
2018-11-29T10:02:53.908Z,16.22
2018-11-29T10:03:25.943Z,16.18
2018-11-29T10:03:57.953Z,16.27
2018-11-29T10:04:36.888Z,16.29
2018-11-29T10:05:08.882Z,16.29
2018-11-29T10:05:40.898Z,16.27
2018-11-29T10:06:12.900Z,16.26
2018-11-29T10:06:44.946Z,16.29
2018-11-29T10:07:16.921Z,16.26
2018-11-29T10:07:48.942Z,16.27
2018-11-29T10:08:26.003Z,16.27
2018-11-29T10:08:58.227Z,16.34
2018-11-29T10:09:30.262Z,16.29
2018-11-29T10:10:02.373Z,16.37
2018-11-29T10:10:34.431Z,16.32
2018-11-29T10:11:06.503Z,16.33
2018-11-29T10:11:38.512Z,16.32
2018-11-29T10:12:10.587Z,16.36
2018-11-29T10:12:42.578Z,16.34
2018-11-29T10:13:14.573Z,16.36
2018-11-29T10:13:46.607Z,16.32
2018-11-29T10:14:18.678Z,16.34
2018-11-29T10:14:50.697Z,16.42
2018-11-29T10:15:22.690Z,16.29
2018-11-29T10:15:54.704Z,16.45
2018-11-29T10:16:26.680Z,16.39
2018-11-29T10:16:58.675Z,16.45
2018-11-29T10:17:30.687Z,16.36
2018-11-29T10:18:02.736Z,16.51
2018-11-29T10:18:34.733Z,16.47
2018-11-29T10:19:06.736Z,16.52
2018-11-29T10:19:38.715Z,16.39
2018-11-29T10:20:10.720Z,16.4
2018-11-29T10:20:42.764Z,16.49
2018-11-29T10:21:14.728Z,16.47
2018-11-29T10:21:46.762Z,16.49
2018-11-29T10:22:18.753Z,16.48
2018-11-29T10:22:50.737Z,16.45
2018-11-29T10:23:22.754Z,16.47
2018-11-29T10:23:54.827Z,16.54
2018-11-29T10:24:26.797Z,16.51
2018-11-29T10:24:58.803Z,16.49
2018-11-29T10:25:30.781Z,16.51
2018-11-29T10:26:02.777Z,16.47
2018-11-29T10:26:34.758Z,16.49
2018-11-29T10:27:06.752Z,16.52
2018-11-29T10:27:38.725Z,16.52
2018-11-29T10:28:10.704Z,16.55
2018-11-29T10:28:42.684Z,16.48
2018-11-29T10:29:14.864Z,16.65
2018-11-29T10:29:46.972Z,16.62
2018-11-29T10:30:18.971Z,16.55
2018-11-29T10:30:50.964Z,16.62
2018-11-29T10:31:23.023Z,16.52
2018-11-29T10:31:55.386Z,16.67
2018-11-29T10:32:27.382Z,16.52
2018-11-29T10:32:59.364Z,16.62
2018-11-29T10:33:31.343Z,16.62
2018-11-29T10:34:03.311Z,16.51
2018-11-29T10:34:35.298Z,16.59
2018-11-29T10:35:07.281Z,16.55
2018-11-29T10:35:39.260Z,16.54
2018-11-29T10:36:11.256Z,16.59
2018-11-29T10:36:43.234Z,16.51
2018-11-29T10:37:15.226Z,16.51
2018-11-29T10:37:47.225Z,16.65
2018-11-29T10:38:19.199Z,16.69
2018-11-29T10:38:51.160Z,16.55
2018-11-29T10:39:23.133Z,16.67
2018-11-29T10:39:55.102Z,16.66
2018-11-29T10:40:27.086Z,16.66
2018-11-29T10:40:59.051Z,16.65
2018-11-29T10:41:31.108Z,16.59
2018-11-29T10:42:03.081Z,16.67
2018-11-29T10:42:35.057Z,16.59
2018-11-29T10:43:07.269Z,16.67
2018-11-29T10:43:39.249Z,16.62
2018-11-29T10:44:11.231Z,16.66
2018-11-29T10:44:43.234Z,16.7
2018-11-29T10:45:15.219Z,16.62
2018-11-29T10:45:47.347Z,16.59
2018-11-29T10:46:19.317Z,16.66
2018-11-29T10:46:51.571Z,16.65
2018-11-29T10:47:23.559Z,16.63
2018-11-29T10:47:55.576Z,16.65
2018-11-29T10:48:27.582Z,16.65
2018-11-29T10:48:59.584Z,16.63
2018-11-29T10:49:31.557Z,16.62
2018-11-29T10:50:03.553Z,16.57
2018-11-29T10:50:35.542Z,16.63
2018-11-29T10:51:07.555Z,16.69
2018-11-29T10:51:39.540Z,16.65
2018-11-29T10:52:11.518Z,16.72
2018-11-29T10:52:43.498Z,16.67
2018-11-29T10:53:15.503Z,16.57
2018-11-29T10:53:47.517Z,16.59
2018-11-29T10:54:19.500Z,16.59
2018-11-29T10:54:51.716Z,16.57
2018-11-29T10:55:23.752Z,16.52
2018-11-29T10:55:55.733Z,16.63
2018-11-29T10:56:27.747Z,16.62
2018-11-29T10:57:03.017Z,16.73
2018-11-29T10:57:35.068Z,16.7
2018-11-29T10:58:07.128Z,16.65
2018-11-29T10:58:39.189Z,16.66
2018-11-29T10:59:11.190Z,16.7
2018-11-29T10:59:43.168Z,16.69
2018-11-29T11:00:15.175Z,16.7
2018-11-29T11:00:47.144Z,16.72
2018-11-29T11:01:19.135Z,16.7
2018-11-29T11:01:51.201Z,16.66
2018-11-29T11:02:23.215Z,16.69
2018-11-29T11:02:55.183Z,16.63
2018-11-29T11:03:27.361Z,16.73
2018-11-29T11:03:59.349Z,16.69
2018-11-29T11:04:31.336Z,16.67
2018-11-29T11:05:03.310Z,16.7
2018-11-29T11:05:35.283Z,16.7
2018-11-29T11:06:07.287Z,16.66
2018-11-29T11:06:39.261Z,16.73
2018-11-29T11:07:11.442Z,16.66
2018-11-29T11:07:43.439Z,16.74
2018-11-29T11:08:16.055Z,16.69
2018-11-29T11:08:48.110Z,16.65
2018-11-29T11:09:20.106Z,16.7
2018-11-29T11:09:52.077Z,16.74
2018-11-29T11:10:24.078Z,16.73
2018-11-29T11:10:56.059Z,16.73
2018-11-29T11:11:28.036Z,16.77
2018-11-29T11:12:00.017Z,16.76
2018-11-29T11:12:32.012Z,16.74
2018-11-29T11:13:03.993Z,16.74
2018-11-29T11:13:36.014Z,16.73
2018-11-29T11:14:08.003Z,16.73
2018-11-29T11:14:39.973Z,16.74
2018-11-29T11:15:11.960Z,16.73
2018-11-29T11:15:43.938Z,16.73
2018-11-29T11:16:15.947Z,16.69
2018-11-29T11:16:48.020Z,16.77
2018-11-29T11:17:20.002Z,16.76
2018-11-29T11:17:52.007Z,16.73
2018-11-29T11:18:24.025Z,16.77
2018-11-29T11:18:56.010Z,16.76
2018-11-29T11:19:27.993Z,16.76
2018-11-29T11:19:59.979Z,16.74
2018-11-29T11:20:32.023Z,16.66
2018-11-29T11:21:04.030Z,16.82
2018-11-29T11:21:36.032Z,16.82
2018-11-29T11:22:08.018Z,16.76
2018-11-29T11:22:40.041Z,16.73
2018-11-29T11:23:12.025Z,16.74
2018-11-29T11:23:44.022Z,16.76
2018-11-29T11:24:16.026Z,16.8
2018-11-29T11:24:48.000Z,16.76
2018-11-29T11:25:20.011Z,16.8
2018-11-29T11:25:51.971Z,16.82
2018-11-29T11:26:23.946Z,16.81
2018-11-29T11:26:55.956Z,16.73
2018-11-29T11:27:27.933Z,16.76
2018-11-29T11:28:00.391Z,16.77
2018-11-29T11:28:32.352Z,16.77
2018-11-29T11:29:04.355Z,16.81
2018-11-29T11:29:36.323Z,16.82
2018-11-29T11:30:08.316Z,16.73
2018-11-29T11:30:40.311Z,16.82
2018-11-29T11:31:12.409Z,16.76
2018-11-29T11:31:44.379Z,16.8
2018-11-29T11:32:16.512Z,16.77
2018-11-29T11:32:49.745Z,16.84
2018-11-29T11:33:21.751Z,16.72
2018-11-29T11:33:53.787Z,16.87
2018-11-29T11:34:25.798Z,16.76
2018-11-29T11:34:57.826Z,16.76
2018-11-29T11:35:29.843Z,16.74
2018-11-29T11:36:01.830Z,16.77
2018-11-29T11:36:33.841Z,16.9
2018-11-29T11:37:05.833Z,16.76
2018-11-29T11:37:37.798Z,16.88
2018-11-29T11:38:09.916Z,16.84
2018-11-29T11:38:41.918Z,16.8
2018-11-29T11:39:13.910Z,16.84
2018-11-29T11:39:45.926Z,16.82
2018-11-29T11:40:17.913Z,16.91
2018-11-29T11:40:49.934Z,16.85
2018-11-29T11:41:21.974Z,16.94
2018-11-29T11:41:54.171Z,16.94
2018-11-29T11:42:26.773Z,16.87
2018-11-29T11:42:58.931Z,16.88
2018-11-29T11:43:36.267Z,16.88
2018-11-29T11:44:08.344Z,16.85
2018-11-29T11:44:40.389Z,16.85
2018-11-29T11:45:12.390Z,16.85
2018-11-29T11:45:44.391Z,16.85
2018-11-29T11:46:16.784Z,16.91
2018-11-29T11:46:48.899Z,16.92
2018-11-29T11:47:21.004Z,16.88
2018-11-29T11:47:52.999Z,16.8
2018-11-29T11:48:25.017Z,16.88
2018-11-29T11:48:56.998Z,16.87
2018-11-29T11:49:28.995Z,16.91
2018-11-29T11:50:00.973Z,16.92
2018-11-29T11:50:32.967Z,16.88
2018-11-29T11:51:04.976Z,16.9
2018-11-29T11:51:36.979Z,16.9
2018-11-29T11:52:09.158Z,16.88
2018-11-29T11:52:42.053Z,16.94
2018-11-29T11:53:14.055Z,16.84
2018-11-29T11:53:46.044Z,16.88
2018-11-29T11:54:18.052Z,16.92
2018-11-29T11:54:50.031Z,16.9
2018-11-29T11:55:22.031Z,16.88
2018-11-29T11:56:01.347Z,16.88
2018-11-29T11:56:33.366Z,16.92
2018-11-29T11:57:06.106Z,16.92
2018-11-29T11:57:39.804Z,16.91
2018-11-29T11:58:11.826Z,16.84
2018-11-29T11:58:43.923Z,16.94
2018-11-29T11:59:16.027Z,16.94
2018-11-29T11:59:48.032Z,16.92
2018-11-29T12:00:20.100Z,16.94
2018-11-29T12:00:52.141Z,16.91
2018-11-29T12:01:24.136Z,16.94
2018-11-29T12:01:56.128Z,16.91
2018-11-29T12:02:28.354Z,16.95
2018-11-29T12:03:00.356Z,16.94
2018-11-29T12:03:32.345Z,16.88
2018-11-29T12:04:04.337Z,16.9
2018-11-29T12:04:36.339Z,16.94
2018-11-29T12:05:08.366Z,16.95
2018-11-29T12:05:40.345Z,16.92
2018-11-29T12:06:12.337Z,17.02
2018-11-29T12:06:44.367Z,16.91
2018-11-29T12:07:16.395Z,16.94
2018-11-29T12:07:48.397Z,16.94
2018-11-29T12:08:20.714Z,16.92
2018-11-29T12:08:52.700Z,16.94
2018-11-29T12:09:24.687Z,16.88
2018-11-29T12:09:57.671Z,16.91
2018-11-29T12:10:31.125Z,16.88
2018-11-29T12:11:03.102Z,17
2018-11-29T12:11:35.112Z,16.87
2018-11-29T12:12:07.171Z,17.02
2018-11-29T12:12:39.162Z,16.88
2018-11-29T12:13:11.148Z,16.87
2018-11-29T12:13:43.127Z,16.9
2018-11-29T12:14:15.121Z,16.99
2018-11-29T12:14:47.158Z,16.94
2018-11-29T12:15:19.144Z,16.92
2018-11-29T12:15:51.127Z,16.91
2018-11-29T12:16:23.834Z,16.9
2018-11-29T12:16:55.835Z,16.92
2018-11-29T12:17:27.821Z,16.94
2018-11-29T12:17:59.803Z,16.95
2018-11-29T12:18:31.796Z,16.9
2018-11-29T12:19:03.759Z,16.91
2018-11-29T12:19:35.720Z,16.94
2018-11-29T12:20:07.692Z,16.92
2018-11-29T12:20:39.681Z,17.03
2018-11-29T12:21:11.664Z,16.97
2018-11-29T12:21:43.640Z,16.9
2018-11-29T12:22:15.668Z,16.87
2018-11-29T12:22:47.654Z,16.94
2018-11-29T12:23:19.649Z,17
2018-11-29T12:23:51.605Z,16.94
2018-11-29T12:24:23.564Z,17.05
2018-11-29T12:24:55.553Z,16.92
2018-11-29T12:25:27.533Z,16.94
2018-11-29T12:25:59.507Z,16.9
2018-11-29T12:26:31.481Z,16.92
2018-11-29T12:27:03.461Z,16.95
2018-11-29T12:27:35.444Z,16.95
2018-11-29T12:28:07.420Z,16.97
2018-11-29T12:28:39.438Z,16.92
2018-11-29T12:29:11.426Z,16.91
2018-11-29T12:29:43.401Z,16.97
2018-11-29T12:30:15.382Z,16.99
2018-11-29T12:30:47.351Z,17.02
2018-11-29T12:31:19.322Z,16.99
2018-11-29T12:31:51.308Z,16.99
2018-11-29T12:32:24.014Z,17
2018-11-29T12:32:55.998Z,17
2018-11-29T12:33:28.899Z,17
2018-11-29T12:34:00.880Z,17
2018-11-29T12:34:32.851Z,16.95
2018-11-29T12:35:04.864Z,17
2018-11-29T12:35:36.817Z,17
2018-11-29T12:36:08.815Z,17.03
2018-11-29T12:36:40.862Z,17.02
2018-11-29T12:37:12.845Z,17.06
2018-11-29T12:37:44.802Z,16.92
2018-11-29T12:38:16.788Z,17.06
2018-11-29T12:38:48.764Z,16.99
2018-11-29T12:39:20.747Z,16.94
2018-11-29T12:39:52.740Z,17.02
2018-11-29T12:40:24.724Z,17.09
2018-11-29T12:40:56.691Z,17.05
2018-11-29T12:41:28.734Z,16.99
2018-11-29T12:42:00.751Z,16.99
2018-11-29T12:42:32.774Z,16.99
2018-11-29T12:43:04.757Z,17.05
2018-11-29T12:43:36.775Z,16.97
2018-11-29T12:44:08.774Z,17.09
2018-11-29T12:44:40.778Z,17.03
2018-11-29T12:45:12.758Z,17.03
2018-11-29T12:45:44.726Z,16.97
2018-11-29T12:46:16.706Z,16.94
2018-11-29T12:46:48.681Z,16.99
2018-11-29T12:47:20.654Z,17.02
2018-11-29T12:47:52.633Z,17
2018-11-29T12:48:24.619Z,17.03
2018-11-29T12:48:56.613Z,16.94
2018-11-29T12:49:28.576Z,16.99
2018-11-29T12:50:00.549Z,17.06
2018-11-29T12:50:32.549Z,17
2018-11-29T12:51:04.542Z,17
2018-11-29T12:51:36.530Z,16.95
2018-11-29T12:52:08.518Z,16.99
2018-11-29T12:52:40.508Z,17
2018-11-29T12:53:12.486Z,17.05
2018-11-29T12:53:44.455Z,16.9
2018-11-29T12:54:16.439Z,17
2018-11-29T12:54:48.405Z,16.99
2018-11-29T12:55:20.395Z,16.95
2018-11-29T12:55:52.406Z,17.05
2018-11-29T12:56:24.384Z,17
2018-11-29T12:56:56.375Z,16.95
2018-11-29T12:57:28.358Z,16.95
2018-11-29T12:58:07.486Z,16.94
2018-11-29T12:58:39.490Z,16.97
2018-11-29T12:59:11.525Z,16.99
2018-11-29T12:59:43.505Z,16.91
2018-11-29T13:00:15.481Z,16.99
2018-11-29T13:00:47.463Z,16.91
2018-11-29T13:01:19.445Z,16.92
2018-11-29T13:01:51.437Z,16.9
2018-11-29T13:02:23.433Z,16.92
2018-11-29T13:02:55.431Z,17
2018-11-29T13:03:27.406Z,16.94
2018-11-29T13:03:59.408Z,16.91
2018-11-29T13:04:32.268Z,16.9
2018-11-29T13:05:04.294Z,16.88
2018-11-29T13:05:36.279Z,16.91
2018-11-29T13:06:08.248Z,16.97
2018-11-29T13:06:40.211Z,16.92
2018-11-29T13:07:12.168Z,16.94
2018-11-29T13:07:44.140Z,16.94
2018-11-29T13:08:16.104Z,16.87
2018-11-29T13:08:48.074Z,16.88
2018-11-29T13:09:20.056Z,16.87
2018-11-29T13:09:52.049Z,16.92
2018-11-29T13:10:24.026Z,16.94
2018-11-29T13:10:56.064Z,16.95
2018-11-29T13:11:28.053Z,16.94
2018-11-29T13:12:00.256Z,16.87
2018-11-29T13:12:32.218Z,16.87
2018-11-29T13:13:04.188Z,16.94
2018-11-29T13:13:36.165Z,16.9
2018-11-29T13:14:08.260Z,16.81
2018-11-29T13:14:40.740Z,16.87
2018-11-29T13:15:12.824Z,16.82
2018-11-29T13:15:45.569Z,16.77
2018-11-29T13:16:17.670Z,16.77
2018-11-29T13:16:49.664Z,16.77
2018-11-29T13:17:21.646Z,16.76
2018-11-29T13:17:53.613Z,16.77
2018-11-29T13:18:25.630Z,16.81
2018-11-29T13:18:57.652Z,16.76
2018-11-29T13:19:29.622Z,16.81
2018-11-29T13:20:01.773Z,16.76
2018-11-29T13:20:33.791Z,16.84
2018-11-29T13:21:05.755Z,16.84
2018-11-29T13:21:37.727Z,16.81
2018-11-29T13:22:09.713Z,16.84
2018-11-29T13:22:41.709Z,16.77
2018-11-29T13:23:13.693Z,16.77
2018-11-29T13:23:45.701Z,16.77
2018-11-29T13:24:17.738Z,16.77
2018-11-29T13:24:49.757Z,16.8
2018-11-29T13:25:21.717Z,16.8
2018-11-29T13:25:53.719Z,16.69
2018-11-29T13:26:25.692Z,16.74
2018-11-29T13:26:57.686Z,16.74
2018-11-29T13:27:29.664Z,16.7
2018-11-29T13:28:01.681Z,16.82
2018-11-29T13:28:33.762Z,16.77
2018-11-29T13:29:05.743Z,16.72
2018-11-29T13:29:37.729Z,16.74
2018-11-29T13:30:09.713Z,16.7
2018-11-29T13:30:41.692Z,16.77
2018-11-29T13:31:13.669Z,16.69
2018-11-29T13:31:45.709Z,16.74
2018-11-29T13:32:17.701Z,16.69
2018-11-29T13:32:49.677Z,16.67
2018-11-29T13:33:21.672Z,16.72
2018-11-29T13:33:53.652Z,16.72
2018-11-29T13:34:25.638Z,16.7
2018-11-29T13:34:57.633Z,16.66
2018-11-29T13:35:29.626Z,16.73
2018-11-29T13:36:01.614Z,16.73
2018-11-29T13:36:33.622Z,16.66
2018-11-29T13:37:05.613Z,16.69
2018-11-29T13:37:37.628Z,16.63
2018-11-29T13:38:09.613Z,16.7
2018-11-29T13:38:41.646Z,16.7
2018-11-29T13:39:13.605Z,16.69
2018-11-29T13:39:45.580Z,16.72
2018-11-29T13:40:50.964Z,16.7
2018-11-29T13:41:23.199Z,16.73
2018-11-29T13:41:55.191Z,16.66
2018-11-29T13:42:27.196Z,16.67
2018-11-29T13:42:59.177Z,16.62
2018-11-29T13:43:31.176Z,16.67
2018-11-29T13:44:03.275Z,16.63
2018-11-29T13:44:35.299Z,16.58
2018-11-29T13:45:07.305Z,16.65
2018-11-29T13:45:39.273Z,16.66
2018-11-29T13:46:11.277Z,16.67
2018-11-29T13:46:43.293Z,16.63
2018-11-29T13:47:15.275Z,16.62
2018-11-29T13:47:47.325Z,16.7
2018-11-29T13:48:19.338Z,16.59
2018-11-29T13:48:51.323Z,16.7
2018-11-29T13:49:23.325Z,16.67
2018-11-29T13:49:55.317Z,16.66
2018-11-29T13:50:27.411Z,16.62
2018-11-29T13:50:59.466Z,16.67
2018-11-29T13:51:31.449Z,16.62
2018-11-29T13:52:03.520Z,16.65
2018-11-29T13:52:35.839Z,16.54
2018-11-29T13:53:07.881Z,16.54
2018-11-29T13:53:39.904Z,16.59
2018-11-29T13:54:11.879Z,16.58
2018-11-29T13:54:43.861Z,16.58
2018-11-29T13:55:15.830Z,16.57
2018-11-29T13:55:48.206Z,16.62
2018-11-29T13:56:20.171Z,16.57
2018-11-29T13:56:52.198Z,16.59
2018-11-29T13:57:24.200Z,16.57
2018-11-29T13:57:56.225Z,16.59
2018-11-29T13:58:28.263Z,16.57
2018-11-29T13:59:00.256Z,16.52
2018-11-29T13:59:32.752Z,16.62
2018-11-29T14:00:04.745Z,16.7
2018-11-29T14:00:36.705Z,16.57
2018-11-29T14:01:08.696Z,16.54
2018-11-29T14:01:40.679Z,16.54
2018-11-29T14:02:12.675Z,16.55
2018-11-29T14:02:46.885Z,16.49
2018-11-29T14:03:19.217Z,16.48
2018-11-29T14:03:51.186Z,16.57
2018-11-29T14:04:23.154Z,16.59
2018-11-29T14:04:55.142Z,16.59
2018-11-29T14:05:27.139Z,16.58
2018-11-29T14:05:59.118Z,16.49
2018-11-29T14:06:31.079Z,16.54
2018-11-29T14:07:03.060Z,16.52
2018-11-29T14:07:35.032Z,16.48
2018-11-29T14:08:07.869Z,16.52
2018-11-29T14:08:39.897Z,16.49
2018-11-29T14:09:12.141Z,16.48
2018-11-29T14:09:44.119Z,16.49
2018-11-29T14:10:16.107Z,16.52
2018-11-29T14:10:48.151Z,16.48
2018-11-29T14:11:20.234Z,16.45
2018-11-29T14:11:52.227Z,16.52
2018-11-29T14:12:24.212Z,16.4
2018-11-29T14:12:56.174Z,16.44
2018-11-29T14:13:28.170Z,16.45
2018-11-29T14:14:00.171Z,16.45
2018-11-29T14:14:32.153Z,16.37
2018-11-29T14:15:04.261Z,16.42
2018-11-29T14:15:36.271Z,16.4
2018-11-29T14:16:08.246Z,16.44
2018-11-29T14:16:40.235Z,16.51
2018-11-29T14:17:12.334Z,16.48
2018-11-29T14:17:44.426Z,16.47
2018-11-29T14:18:16.408Z,16.4
2018-11-29T14:18:48.389Z,16.45
2018-11-29T14:19:20.354Z,16.42
2018-11-29T14:19:52.459Z,16.44
2018-11-29T14:20:24.465Z,16.39
2018-11-29T14:20:56.443Z,16.4
2018-11-29T14:21:28.437Z,16.39
2018-11-29T14:22:00.526Z,16.37
2018-11-29T14:22:32.495Z,16.3
2018-11-29T14:23:04.467Z,16.34
2018-11-29T14:23:36.436Z,16.36
2018-11-29T14:24:08.459Z,16.32
2018-11-29T14:24:40.405Z,16.29
2018-11-29T14:25:12.366Z,16.34
2018-11-29T14:25:44.602Z,16.33
2018-11-29T14:26:16.574Z,16.3
2018-11-29T14:26:48.544Z,16.36
2018-11-29T14:27:20.529Z,16.36
2018-11-29T14:27:52.524Z,16.34
2018-11-29T14:28:24.652Z,16.34
2018-11-29T14:28:56.667Z,16.3
2018-11-29T14:29:28.788Z,16.34
2018-11-29T14:30:00.766Z,16.32
2018-11-29T14:30:32.767Z,16.36
2018-11-29T14:31:04.760Z,16.32
2018-11-29T14:31:36.735Z,16.36
2018-11-29T14:32:08.876Z,16.29
2018-11-29T14:32:41.773Z,16.34
2018-11-29T14:33:13.732Z,16.33
2018-11-29T14:33:45.733Z,16.32
2018-11-29T14:34:17.885Z,16.33
2018-11-29T14:34:51.836Z,16.32
2018-11-29T14:35:23.996Z,16.29
2018-11-29T14:35:55.968Z,16.32
2018-11-29T14:36:27.964Z,16.33
2018-11-29T14:36:59.944Z,16.33
2018-11-29T14:37:31.921Z,16.26
2018-11-29T14:38:03.898Z,16.32
2018-11-29T14:38:35.863Z,16.3
2018-11-29T14:39:07.837Z,16.29
2018-11-29T14:39:39.864Z,16.25
2018-11-29T14:40:11.847Z,16.27
2018-11-29T14:40:43.828Z,16.29
2018-11-29T14:41:15.803Z,16.25
2018-11-29T14:41:47.770Z,16.21
2018-11-29T14:42:19.730Z,16.25
2018-11-29T14:42:51.700Z,16.27
2018-11-29T14:43:23.676Z,16.25
2018-11-29T14:43:55.641Z,16.27
2018-11-29T14:44:27.706Z,16.25
2018-11-29T14:44:59.691Z,16.22
2018-11-29T14:46:54.843Z,16.3
2018-11-29T14:47:26.878Z,16.25
2018-11-29T14:47:58.926Z,16.16
2018-11-29T14:48:30.924Z,16.27
2018-11-29T14:49:02.898Z,16.16
2018-11-29T14:49:34.882Z,16.17
2018-11-29T14:50:06.859Z,16.17
2018-11-29T14:50:38.852Z,16.14
2018-11-29T14:51:10.948Z,16.14
2018-11-29T14:51:47.927Z,16.17
2018-11-29T14:52:20.075Z,16.22
2018-11-29T14:52:52.081Z,16.13
2018-11-29T14:53:24.066Z,16.16
2018-11-29T14:53:56.043Z,16.14
2018-11-29T14:54:28.022Z,16.07
2018-11-29T14:54:59.994Z,16.08
2018-11-29T14:55:31.978Z,16.16
2018-11-29T14:56:03.968Z,16.14
2018-11-29T14:56:36.007Z,16.13
2018-11-29T14:57:07.991Z,16.17
2018-11-29T14:57:39.996Z,16.11
2018-11-29T14:58:11.977Z,16.16
2018-11-29T14:58:43.962Z,16.1
2018-11-29T14:59:16.006Z,16.16
2018-11-29T14:59:47.978Z,16.11
2018-11-29T15:00:19.950Z,16
2018-11-29T15:00:51.932Z,16.06
2018-11-29T15:01:23.902Z,16.1
2018-11-29T15:01:55.882Z,16.07
2018-11-29T15:02:27.891Z,16.08
2018-11-29T15:02:59.877Z,16.11
2018-11-29T15:03:31.882Z,16.08
2018-11-29T15:04:05.666Z,15.99
2018-11-29T15:04:37.658Z,16.07
2018-11-29T15:05:09.645Z,16.06
2018-11-29T15:05:41.633Z,16.06
2018-11-29T15:06:13.624Z,16.07
2018-11-29T15:06:45.603Z,16.07
2018-11-29T15:07:17.600Z,16.04
2018-11-29T15:07:49.570Z,16
2018-11-29T15:08:21.552Z,16
2018-11-29T15:08:53.528Z,16
2018-11-29T15:09:25.479Z,16.06
2018-11-29T15:09:57.439Z,16.08
2018-11-29T15:10:29.429Z,16.07
2018-11-29T15:11:01.411Z,16.02
2018-11-29T15:11:33.384Z,16.07
2018-11-29T15:12:05.364Z,15.96
2018-11-29T15:12:37.330Z,16
2018-11-29T15:13:09.309Z,16.04
2018-11-29T15:13:41.277Z,16.02
2018-11-29T15:14:17.805Z,16.04
2018-11-29T15:14:50.093Z,15.98
2018-11-29T15:15:22.069Z,16.02
2018-11-29T15:15:54.037Z,16.04
2018-11-29T15:16:26.005Z,15.96
2018-11-29T15:16:57.975Z,15.92
2018-11-29T15:17:29.960Z,15.98
2018-11-29T15:18:01.924Z,16.02
2018-11-29T15:18:33.871Z,15.98
2018-11-29T15:19:05.840Z,15.93
2018-11-29T15:19:37.834Z,15.96
2018-11-29T15:20:09.809Z,15.98
2018-11-29T15:20:41.798Z,15.93
2018-11-29T15:21:13.793Z,15.93
2018-11-29T15:21:45.829Z,15.99
2018-11-29T15:22:17.817Z,15.93
2018-11-29T15:22:49.785Z,15.95
2018-11-29T15:23:21.784Z,15.93
2018-11-29T15:23:53.774Z,15.99
2018-11-29T15:24:25.739Z,15.99
2018-11-29T15:24:57.730Z,15.98
2018-11-29T15:25:29.699Z,15.95
2018-11-29T15:26:01.683Z,15.96
2018-11-29T15:26:33.674Z,15.99
2018-11-29T15:27:05.678Z,15.99
2018-11-29T15:27:37.670Z,15.89
2018-11-29T15:28:09.666Z,15.92
2018-11-29T15:28:41.640Z,15.92
2018-11-29T15:29:13.624Z,15.93
2018-11-29T15:29:45.604Z,15.93
2018-11-29T15:30:17.586Z,15.96
2018-11-29T15:30:49.545Z,15.92
2018-11-29T15:31:21.521Z,15.95
2018-11-29T15:31:53.513Z,15.89
2018-11-29T15:32:25.493Z,15.96
2018-11-29T15:32:57.485Z,15.91
2018-11-29T15:33:29.683Z,15.95
2018-11-29T15:34:01.645Z,15.88
2018-11-29T15:34:33.629Z,15.91
2018-11-29T15:35:05.623Z,15.92
2018-11-29T15:35:37.617Z,15.91
2018-11-29T15:36:09.568Z,15.91
2018-11-29T15:36:41.543Z,15.91
2018-11-29T15:37:14.409Z,15.88
2018-11-29T15:37:46.380Z,15.88
2018-11-29T15:38:18.361Z,15.84
2018-11-29T15:38:50.368Z,15.91
2018-11-29T15:39:22.345Z,15.8
2018-11-29T15:39:54.327Z,15.91
2018-11-29T15:40:26.311Z,15.88
2018-11-29T15:40:58.337Z,15.86
2018-11-29T15:41:30.328Z,15.91
2018-11-29T15:42:02.287Z,15.91
2018-11-29T15:42:34.248Z,15.89
2018-11-29T15:43:06.259Z,15.93
2018-11-29T15:43:38.214Z,15.8
2018-11-29T15:44:10.195Z,15.91
2018-11-29T15:44:42.153Z,15.91
2018-11-29T15:45:14.136Z,15.88
2018-11-29T15:45:46.191Z,15.84
2018-11-29T15:46:18.202Z,15.86
2018-11-29T15:46:50.167Z,15.81
2018-11-29T15:47:22.135Z,15.88
2018-11-29T15:47:54.134Z,15.88
2018-11-29T15:48:26.109Z,15.89
2018-11-29T15:48:58.104Z,15.86
2018-11-29T15:49:31.046Z,15.86
2018-11-29T15:50:03.010Z,15.84
2018-11-29T15:50:35.091Z,15.81
2018-11-29T15:51:07.165Z,15.88
2018-11-29T15:51:39.154Z,15.93
2018-11-29T15:52:11.108Z,15.8
2018-11-29T15:52:43.104Z,15.89
2018-11-29T15:53:15.083Z,15.84
2018-11-29T15:53:47.045Z,15.86
2018-11-29T15:54:19.042Z,15.86
2018-11-29T15:54:51.042Z,15.81
2018-11-29T15:55:22.999Z,15.81
2018-11-29T15:55:54.996Z,15.86
2018-11-29T15:56:26.992Z,15.86
2018-11-29T15:56:59.037Z,15.84
2018-11-29T15:57:34.721Z,15.83
2018-11-29T15:58:07.230Z,15.8
2018-11-29T15:58:39.246Z,15.84
2018-11-29T15:59:11.229Z,15.81
2018-11-29T15:59:43.228Z,15.92
2018-11-29T16:00:15.240Z,15.84
2018-11-29T16:00:47.211Z,15.86
2018-11-29T16:01:19.182Z,15.86
2018-11-29T16:01:51.153Z,15.77
2018-11-29T16:02:23.118Z,15.75
2018-11-29T16:02:55.229Z,15.89
2018-11-29T16:03:27.245Z,15.86
2018-11-29T16:03:59.230Z,15.8
2018-11-29T16:04:31.238Z,15.84
2018-11-29T16:05:03.210Z,15.73
2018-11-29T16:05:35.172Z,15.83
2018-11-29T16:06:07.141Z,15.84
2018-11-29T16:06:39.119Z,15.78
2018-11-29T16:07:11.114Z,15.8
2018-11-29T16:07:43.082Z,15.81
2018-11-29T16:08:15.085Z,15.78
2018-11-29T16:08:47.092Z,15.84
2018-11-29T16:09:19.118Z,15.78
2018-11-29T16:09:51.094Z,15.81
2018-11-29T16:10:23.050Z,15.83
2018-11-29T16:10:55.035Z,15.78
2018-11-29T16:11:27.010Z,15.8
2018-11-29T16:11:58.977Z,15.75
2018-11-29T16:12:30.955Z,15.74
2018-11-29T16:13:02.934Z,15.78
2018-11-29T16:13:36.160Z,15.81
2018-11-29T16:14:08.144Z,15.8
2018-11-29T16:14:43.407Z,15.73
2018-11-29T16:15:15.655Z,15.83